Impacts TAF Board INFO
FOR SITUATIONAL AWARENESS. NOT TO BE USED FOR FLIGHT PLANNING PURPOSES.
IDs:

KJFK - New York/Kennedy Int, NY, US

Issued at 1339 UTC 18 Jan 2018
Updated at 1531 UTC 18 Jan 2018
Potential Impact None Slight Moderate High
Time1451Z 18/16Z 18/17Z 18/18Z 18/19Z 18/20Z 18/21Z 18/22Z 18/23Z 19/00Z 19/01Z 19/02Z 19/03Z 19/04Z>>
Type OBS PRVL PRVL PRVL PRVL PRVL PRVL PRVL PRVL PRVL PRVL PRVL PRVL PRVL
VIS 10 >6 >6 >6 >6 >6 >6 >6 >6 >6 >6 >6 >6 >6
CIG -- -- -- -- -- -- -- -- -- -- -- -- -- --
Cover FEW SKC SKC SKC FEW FEW FEW FEW FEW SKC SKC SKC SKC SKC
FltCat VFR VFR VFR VFR VFR VFR VFR VFR VFR VFR VFR VFR VFR VFR
WX -- -- -- -- -- -- -- -- -- -- -- -- -- --
WDir 280 320 320 320 300 300 300 300 300 310 310 310 310 290
WSpd 7 14 14 14 14 14 14 14 14 12 12 12 12 10
WGst -- 20 20 20 21 21 21 21 21 18 18 18 18 --

Raw TAF
KJFK 181339Z 1814/1918 32014G20KT P6SM SKC
  FM181900 30014G21KT P6SM FEW030
  FM190000 31012G18KT P6SM SKC
  FM190400 29010KT P6SM SKC
  FM190800 28006KT P6SM FEW030 SCT170
  FM191400 27010G18KT P6SM FEW200


Raw METAR
KJFK 181451Z 28007KT 10SM FEW200 M03/M13 A3009 RMK AO2 SLP187 T10281128 55006 $
KJFK 181351Z 31011KT 10SM FEW095 SCT200 M05/M13 A3005 RMK AO2 SLP173 T10501133 $
KJFK 181251Z 32012KT 10SM FEW095 SCT180 M06/M12 A3007 RMK AO2 SLP182 T10561122 $

METAR Board
Radar Display
Forecast Discussion

FOR SITUATIONAL AWARENESS. NOT TO BE USED FOR FLIGHT PLANNING PURPOSES.